Map

Track Data

SID SEASON NUMBER BASIN SUBBASIN NAME ISO_TIME NATURE LAT LON WMO_WIND WMO_PRES WMO_AGENCY TRACK_TYPE DIST2LAND LANDFALL IFLAG USA_AGENCY USA_ATCF_ID USA_LAT USA_LON USA_RECORD USA_STATUS USA_WIND USA_PRES USA_SSHS USA_R34_NE USA_R34_SE USA_R34_SW USA_R34_NW USA_R50_NE USA_R50_SE USA_R50_SW USA_R50_NW USA_R64_NE USA_R64_SE USA_R64_SW USA_R64_NW USA_POCI USA_ROCI USA_RMW USA_EYE TOKYO_LAT TOKYO_LON TOKYO_GRADE TOKYO_WIND TOKYO_PRES TOKYO_R50_DIR TOKYO_R50_LONG TOKYO_R50_SHORT TOKYO_R30_DIR TOKYO_R30_LONG TOKYO_R30_SHORT TOKYO_LAND CMA_LAT CMA_LON CMA_CAT CMA_WIND CMA_PRES HKO_LAT HKO_LON HKO_CAT HKO_WIND HKO_PRES NEWDELHI_LAT NEWDELHI_LON NEWDELHI_GRADE NEWDELHI_WIND NEWDELHI_PRES NEWDELHI_CI NEWDELHI_DP NEWDELHI_POCI REUNION_LAT REUNION_LON REUNION_TYPE REUNION_WIND REUNION_PRES REUNION_TNUM REUNION_CI REUNION_RMW REUNION_R34_NE REUNION_R34_SE REUNION_R34_SW REUNION_R34_NW REUNION_R50_NE REUNION_R50_SE REUNION_R50_SW REUNION_R50_NW REUNION_R64_NE REUNION_R64_SE REUNION_R64_SW REUNION_R64_NW BOM_LAT BOM_LON BOM_TYPE BOM_WIND BOM_PRES BOM_TNUM BOM_CI BOM_RMW BOM_R34_NE BOM_R34_SE BOM_R34_SW BOM_R34_NW BOM_R50_NE BOM_R50_SE BOM_R50_SW BOM_R50_NW BOM_R64_NE BOM_R64_SE BOM_R64_SW BOM_R64_NW BOM_ROCI BOM_POCI BOM_EYE BOM_POS_METHOD BOM_PRES_METHOD NADI_LAT NADI_LON NADI_CAT NADI_WIND NADI_PRES WELLINGTON_LAT WELLINGTON_LON WELLINGTON_WIND WELLINGTON_PRES DS824_LAT DS824_LON DS824_STAGE DS824_WIND DS824_PRES TD9636_LAT TD9636_LON TD9636_STAGE TD9636_WIND TD9636_PRES TD9635_LAT TD9635_LON TD9635_WIND TD9635_PRES TD9635_ROCI NEUMANN_LAT NEUMANN_LON NEUMANN_CLASS NEUMANN_WIND NEUMANN_PRES MLC_LAT MLC_LON MLC_CLASS MLC_WIND MLC_PRES USA_GUST BOM_GUST BOM_GUST_PER REUNION_GUST REUNION_GUST_PER USA_SEAHGT USA_SEARAD_NE USA_SEARAD_SE USA_SEARAD_SW USA_SEARAD_NW STORM_SPEED STORM_DIR
1907286N15091 1907 54 NI BB NOT_NAMED 1907-10-13 00:00:00 TS 14.7000 91.1000 main 362 362 _________O____ -1 14.7000 91.1000 TC 64 6 298
1907286N15091 1907 54 NI BB NOT_NAMED 1907-10-13 03:00:00 TS 14.8317 90.8417 main 388 384 _________PO___ -1 14.8976 90.7126 TC 64 14.7000 91.1000 4 7 297
1907286N15091 1907 54 NI BB NOT_NAMED 1907-10-13 06:00:00 TS 15.0227 90.4539 main 412 412 _________OP___ -1 15.1000 90.3000 TC 64 14.9067 90.6848 4 9 296
1907286N15091 1907 54 NI BB NOT_NAMED 1907-10-13 09:00:00 TS 15.2230 90.0280 main 458 456 _________PP___ -1 15.3075 89.8500 TC 64 15.1104 90.2654 4 9 295
1907286N15091 1907 54 NI BB NOT_NAMED 1907-10-13 12:00:00 TS 15.4045 89.6192 main 497 497 _________OP___ -1 15.5000 89.4000 TC 64 15.3089 89.8383 4 9 294
1907286N15091 1907 54 NI BB NOT_NAMED 1907-10-13 15:00:00 TS 15.5787 89.1999 main 537 537 _________PO___ -1 15.6573 88.9999 TC 64 15.5000 89.4000 4 9 292
1907286N15091 1907 54 NI BB NOT_NAMED 1907-10-13 18:00:00 TS 15.7403 88.7753 main 544 500 _________OP___ -1 15.8000 88.6000 TC 64 15.6807 88.9507 4 9 291
1907286N15091 1907 54 NI BB NOT_NAMED 1907-10-13 21:00:00 TS 15.9051 88.3163 main 500 469 _________PP___ -1 15.9651 88.1276 TC 64 15.8451 88.5051 4 9 290
1907286N15091 1907 54 NI BB NOT_NAMED 1907-10-14 00:00:00 TS 16.0435 87.8910 main 469 438 _________OP___ -1 16.1000 87.7000 TC 64 15.9870 88.0820 4 8 287
1907286N15091 1907 54 NI BB NOT_NAMED 1907-10-14 03:00:00 TS 16.1324 87.5637 main 438 408 _________PO___ -1 16.1648 87.4274 TC 64 16.1000 87.7000 4 6 285
1907286N15091 1907 54 NI BB NOT_NAMED 1907-10-14 06:00:00 TS 16.1953 87.2888 main 408 377 _________OP___ -1 16.2000 87.2000 TC 64 16.1905 87.3776 4 6 283
1907286N15091 1907 54 NI BB NOT_NAMED 1907-10-14 09:00:00 TS 16.2548 86.9986 main 377 354 _________PP___ -1 16.2575 86.9000 TC 64 16.2520 87.0973 4 6 280
1907286N15091 1907 54 NI BB NOT_NAMED 1907-10-14 12:00:00 TS 16.2937 86.7217 main 354 339 _________OP___ -1 16.3000 86.6000 TC 64 16.2875 86.8433 4 5 276
1907286N15091 1907 54 NI BB NOT_NAMED 1907-10-14 15:00:00 TS 16.3075 86.4713 main 339 315 _________PO___ -1 16.3149 86.3425 TC 64 16.3000 86.6000 4 5 271
1907286N15091 1907 54 NI BB NOT_NAMED 1907-10-14 18:00:00 TS 16.2983 86.2112 main 315 301 _________OP___ -1 16.3000 86.1000 TC 64 16.2966 86.3224 4 5 265
1907286N15091 1907 54 NI BB NOT_NAMED 1907-10-14 21:00:00 TS 16.2613 85.9449 main 294 290 _________PP___ -1 16.2500 85.8350 TC 64 16.2725 86.0548 4 5 261
1907286N15091 1907 54 NI BB NOT_NAMED 1907-10-15 00:00:00 TS 16.2186 85.7049 main 290 278 _________OP___ -1 16.2000 85.6000 TC 64 16.2372 85.8099 4 4 262
1907286N15091 1907 54 NI BB NOT_NAMED 1907-10-15 03:00:00 TS 16.2000 85.5138 main 278 272 _________PO___ -1 16.2000 85.4275 TC 64 16.2000 85.6000 4 3 265
1907286N15091 1907 54 NI BB NOT_NAMED 1907-10-15 06:00:00 TS 16.1895 85.3655 main 272 267 _________OP___ -1 16.2000 85.3000 TC 64 16.1789 85.4310 4 3 261
1907286N15091 1907 54 NI BB NOT_NAMED 1907-10-15 09:00:00 TS 16.1574 85.2450 main 262 262 _________PP___ -1 16.1575 85.1925 TC 64 16.1573 85.2976 4 2 251
1907286N15091 1907 54 NI BB NOT_NAMED 1907-10-15 12:00:00 TS 16.1160 85.1452 main 262 262 _________OP___ -1 16.1000 85.1000 TC 64 16.1321 85.1903 4 2 246
1907286N15091 1907 54 NI BB NOT_NAMED 1907-10-15 15:00:00 TS 16.0750 85.0462 main 254 254 _________PO___ -1 16.0500 84.9925 TC 64 16.1000 85.1000 4 2 244
1907286N15091 1907 54 NI BB NOT_NAMED 1907-10-15 18:00:00 TS 16.0346 84.9696 main 262 254 _________OP___ -1 16.0000 84.9000 TC 64 16.0692 85.0392 4 1 234
1907286N15091 1907 54 NI BB NOT_NAMED 1907-10-15 21:00:00 TS 15.9936 84.9301 main 254 254 _________PP___ -1 15.9574 84.8726 TC 64 16.0298 84.9877 4 1 227
1907286N15091 1907 54 NI BB NOT_NAMED 1907-10-16 00:00:00 TS 15.9377 84.8587 main 262 248 _________OP___ -1 15.9000 84.8000 TC 64 15.9754 84.9174 4 3 240
1907286N15091 1907 54 NI BB NOT_NAMED 1907-10-16 03:00:00 TS 15.8575 84.6900 main 248 244 _________PO___ -1 15.8150 84.5800 TC 64 15.9000 84.8000 4 4 245
1907286N15091 1907 54 NI BB NOT_NAMED 1907-10-16 06:00:00 TS 15.7544 84.4481 main 238 226 _________OP___ -1 15.7000 84.3000 TC 64 15.8089 84.5962 4 5 244
1907286N15091 1907 54 NI BB NOT_NAMED 1907-10-16 09:00:00 TS 15.6301 84.1975 main 231 219 _________PP___ -1 15.5650 84.0500 TC 64 15.6952 84.3450 4 6 241
1907286N15091 1907 54 NI BB NOT_NAMED 1907-10-16 12:00:00 TS 15.4794 83.9356 main 210 201 _________OP___ -1 15.4000 83.8000 TC 64 15.5589 84.0712 4 6 237
1907286N15091 1907 54 NI BB NOT_NAMED 1907-10-16 15:00:00 TS 15.3037 83.6712 main 208 201 _________PO___ -1 15.2075 83.5425 TC 64 15.4000 83.8000 4 6 233
1907286N15091 1907 54 NI BB NOT_NAMED 1907-10-16 18:00:00 TS 15.1047 83.4257 main 205 205 _________OP___ -1 15.0000 83.3000 TC 64 15.2094 83.5514 4 6 228
1907286N15091 1907 54 NI BB NOT_NAMED 1907-10-16 21:00:00 TS 14.8925 83.1987 main 213 213 _________PP___ -1 14.7850 83.0850 TC 64 15.0000 83.3123 4 6 225
1907286N15091 1907 54 NI BB NOT_NAMED 1907-10-17 00:00:00 TS 14.6953 82.9960 main 223 223 _________OP___ -1 14.6000 82.9000 TC 64 14.7906 83.0920 4 5 227
1907286N15091 1907 54 NI BB NOT_NAMED 1907-10-17 03:00:00 TS 14.5462 82.8175 main 233 228 _________PO___ -1 14.4925 82.7351 TC 64 14.6000 82.9000 4 4 229
1907286N15091 1907 54 NI BB NOT_NAMED 1907-10-17 06:00:00 TS 14.4267 82.6712 main 238 232 _________OP___ -1 14.4000 82.6000 TC 64 14.4533 82.7424 4 4 225
1907286N15091 1907 54 NI BB NOT_NAMED 1907-10-17 09:00:00 TS 14.2887 82.5526 main 240 232 _________PP___ -1 14.2500 82.4925 TC 64 14.3274 82.6128 4 3 218
1907286N15091 1907 54 NI BB NOT_NAMED 1907-10-17 12:00:00 TS 14.1564 82.4509 main 240 229 _________OP___ -1 14.1000 82.4000 TC 64 14.2127 82.5017 4 3 219
1907286N15091 1907 54 NI BB NOT_NAMED 1907-10-17 15:00:00 TS 14.0500 82.3500 main 229 217 _________PO___ -1 14.0000 82.3000 TC 55 14.1000 82.4000 4 3 222
1907286N15091 1907 54 NI BB NOT_NAMED 1907-10-17 18:00:00 TS 13.9466 82.2571 main 216 205 _________OP___ -1 13.9000 82.2000 TC 47 13.9816 82.2999 4 3 219
1907286N15091 1907 54 NI BB NOT_NAMED 1907-10-17 21:00:00 TS 13.8195 82.1599 main 205 194 _________PP___ -1 13.7625 82.1000 TC 38 13.8576 82.1998 4 3 215
1907286N15091 1907 54 NI BB NOT_NAMED 1907-10-18 00:00:00 TS 13.6865 82.0666 main 194 183 _________OP___ -1 13.6000 82.0000 TC 30 13.7297 82.0999 4 3 215
1907286N15091 1907 54 NI BB NOT_NAMED 1907-10-18 03:00:00 NR 13.6000 82.0000 main 183 __________O___ -1 TC 13.6000 82.0000 1 2 219

About IBTrACS Database

This database is a web-friendly format of International Best Track Archive for Climate Stewardship (IBTrACS), a global best track data archive curated by NOAA dating back to 1842.

Updated: 2021-12-06